createdAt,value
2022-09-25T00:03:49.288Z,5.78
2022-09-25T00:08:43.791Z,7.00
2022-09-25T00:13:38.908Z,5.15
2022-09-25T00:18:51.282Z,6.75
2022-09-25T00:23:46.578Z,5.68
2022-09-25T00:28:41.611Z,5.85
2022-09-25T00:33:35.837Z,5.80
2022-09-25T00:38:30.032Z,3.92
2022-09-25T00:43:38.052Z,4.13
2022-09-25T00:48:32.399Z,4.65
2022-09-25T00:53:32.777Z,3.95
2022-09-25T00:58:29.120Z,4.28
2022-09-25T01:03:23.185Z,5.93
2022-09-25T01:08:19.185Z,4.85
2022-09-25T01:13:14.254Z,4.43
2022-09-25T01:18:18.887Z,3.80
2022-09-25T01:23:25.279Z,4.90
2022-09-25T01:28:46.901Z,4.43
2022-09-25T01:33:47.725Z,3.72
2022-09-25T01:38:52.146Z,4.82
2022-09-25T01:43:51.413Z,3.45
2022-09-25T01:48:46.432Z,3.53
2022-09-25T01:53:47.910Z,2.92
2022-09-25T01:59:05.741Z,5.15
2022-09-25T02:04:06.132Z,5.20
2022-09-25T02:09:07.852Z,3.33
2022-09-25T02:14:10.752Z,3.53
2022-09-25T02:19:22.493Z,2.90
2022-09-25T02:24:59.309Z,5.30
2022-09-25T02:29:53.806Z,3.30
2022-09-25T02:34:47.804Z,2.90
2022-09-25T02:39:43.440Z,2.38
2022-09-25T02:44:39.553Z,3.92
2022-09-25T02:49:35.071Z,3.35
2022-09-25T02:54:58.463Z,2.90
2022-09-25T03:04:49.971Z,2.80
2022-09-25T03:09:46.928Z,2.78
2022-09-25T03:14:40.399Z,2.75
2022-09-25T03:19:37.996Z,3.42
2022-09-25T03:24:31.452Z,3.15
2022-09-25T03:29:24.675Z,3.00
2022-09-25T03:34:20.818Z,3.92
2022-09-25T03:39:18.421Z,3.92
2022-09-25T03:44:12.559Z,3.22
2022-09-25T03:49:06.609Z,3.15
2022-09-25T03:54:00.589Z,3.33
2022-09-25T03:58:54.363Z,3.45
2022-09-25T04:03:51.516Z,3.20
2022-09-25T04:08:45.395Z,2.55
2022-09-25T04:13:41.283Z,2.40
2022-09-25T04:18:35.053Z,4.20
2022-09-25T04:28:23.119Z,3.42
2022-09-25T04:33:36.335Z,2.78
2022-09-25T04:38:33.270Z,3.40
2022-09-25T04:43:30.289Z,2.55
2022-09-25T04:48:24.713Z,2.50
2022-09-25T04:53:18.801Z,2.58
2022-09-25T04:58:12.905Z,3.17
2022-09-25T05:03:07.018Z,2.80
2022-09-25T05:08:03.188Z,2.13
2022-09-25T05:13:01.842Z,3.60
2022-09-25T05:18:12.823Z,2.70
2022-09-25T05:23:06.827Z,2.97
2022-09-25T05:28:02.378Z,2.85
2022-09-25T05:32:58.328Z,3.97
2022-09-25T05:37:52.277Z,4.85
2022-09-25T05:42:46.190Z,4.05
2022-09-25T05:47:39.996Z,3.47
2022-09-25T05:52:34.040Z,3.70
2022-09-25T05:57:28.850Z,2.58
2022-09-25T06:02:22.719Z,3.63
2022-09-25T06:07:15.778Z,3.25
2022-09-25T06:12:09.644Z,4.47
2022-09-25T06:17:04.382Z,9.60
2022-09-25T06:21:58.736Z,3.08
2022-09-25T06:26:53.385Z,4.20
2022-09-25T06:31:46.959Z,3.17
2022-09-25T06:36:41.350Z,6.40
2022-09-25T06:41:36.204Z,3.95
2022-09-25T06:46:29.654Z,4.43
2022-09-25T06:51:23.784Z,5.68
2022-09-25T06:56:18.544Z,7.47
2022-09-25T07:01:13.736Z,13.60
2022-09-25T07:06:08.706Z,10.88
2022-09-25T07:11:02.992Z,8.57
2022-09-25T07:16:00.526Z,5.93
2022-09-25T07:20:55.134Z,8.10
2022-09-25T07:25:48.848Z,6.13
2022-09-25T07:30:43.212Z,12.25
2022-09-25T07:35:37.568Z,8.43
2022-09-25T07:40:32.950Z,6.90
2022-09-25T07:45:26.847Z,5.18
2022-09-25T07:50:20.352Z,11.55
2022-09-25T07:55:14.350Z,6.50
2022-09-25T08:00:11.108Z,8.68
2022-09-25T08:05:10.738Z,7.88
2022-09-25T08:10:04.911Z,6.38
2022-09-25T08:14:59.116Z,14.80
2022-09-25T08:19:52.595Z,11.95
2022-09-25T08:24:47.032Z,10.27
2022-09-25T08:29:41.632Z,7.90
2022-09-25T08:34:41.031Z,16.10
2022-09-25T08:39:35.540Z,6.43
2022-09-25T08:45:22.015Z,6.25
2022-09-25T08:50:23.763Z,7.57
2022-09-25T08:55:48.860Z,5.93
2022-09-25T09:00:42.399Z,6.82
2022-09-25T09:05:41.439Z,5.95
2022-09-25T09:10:56.478Z,6.18
2022-09-25T09:16:01.939Z,10.00
2022-09-25T09:20:57.454Z,5.13
2022-09-25T09:25:59.667Z,5.57
2022-09-25T09:31:18.306Z,4.80
2022-09-25T09:36:39.217Z,7.13
2022-09-25T09:41:45.789Z,5.53
2022-09-25T09:47:06.606Z,4.45
2022-09-25T09:52:18.127Z,5.97
2022-09-25T09:57:28.715Z,4.18
2022-09-25T10:02:54.746Z,4.53
2022-09-25T10:07:57.209Z,5.88
2022-09-25T10:12:52.848Z,8.40
2022-09-25T10:17:46.399Z,7.97
2022-09-25T10:22:43.839Z,4.70
2022-09-25T10:27:46.371Z,6.50
2022-09-25T10:32:57.962Z,4.95
2022-09-25T10:37:56.929Z,7.22
2022-09-25T10:42:50.570Z,7.60
2022-09-25T10:48:03.039Z,7.95
2022-09-25T10:53:00.267Z,10.35
2022-09-25T10:57:58.606Z,13.23
2022-09-25T11:02:58.334Z,13.55
2022-09-25T11:07:55.251Z,19.88
2022-09-25T11:12:50.285Z,16.52
2022-09-25T11:17:44.820Z,13.50
2022-09-25T11:22:44.017Z,10.10
2022-09-25T11:27:58.906Z,11.48
2022-09-25T11:32:52.926Z,11.43
2022-09-25T11:38:46.109Z,7.75
2022-09-25T11:44:00.588Z,11.13
2022-09-25T11:49:02.906Z,9.95
2022-09-25T11:54:17.837Z,9.43
2022-09-25T11:59:39.619Z,8.88
2022-09-25T12:04:47.370Z,11.35
2022-09-25T12:10:06.801Z,14.18
2022-09-25T12:15:27.368Z,11.23
2022-09-25T12:20:47.033Z,12.20
2022-09-25T12:26:02.925Z,16.05
2022-09-25T12:31:20.346Z,10.15
2022-09-25T12:36:22.502Z,11.07
2022-09-25T12:41:34.604Z,10.70
2022-09-25T12:46:56.173Z,11.25
2022-09-25T12:51:55.549Z,10.02
2022-09-25T12:56:55.024Z,8.65
2022-09-25T13:02:12.578Z,8.15
2022-09-25T13:07:38.659Z,10.07
2022-09-25T13:12:37.928Z,7.40
2022-09-25T13:17:31.068Z,6.82
2022-09-25T13:22:26.003Z,6.72
2022-09-25T13:27:23.564Z,6.55
2022-09-25T13:32:19.759Z,6.53
2022-09-25T13:37:34.081Z,7.35
2022-09-25T13:42:46.321Z,8.35
2022-09-25T13:47:46.893Z,8.10
2022-09-25T13:52:40.563Z,7.03
2022-09-25T13:58:02.690Z,6.72
2022-09-25T14:03:03.921Z,7.10
2022-09-25T14:08:00.888Z,11.20
2022-09-25T14:12:55.098Z,7.75
2022-09-25T14:17:49.645Z,7.80
2022-09-25T14:22:54.563Z,9.50
2022-09-25T14:27:52.621Z,8.68
2022-09-25T14:33:19.913Z,7.68
2022-09-25T14:38:23.139Z,6.60
2022-09-25T14:43:54.626Z,6.15
2022-09-25T14:49:27.827Z,5.75
2022-09-25T14:54:23.679Z,6.63
2022-09-25T14:59:24.972Z,7.20
2022-09-25T15:04:30.486Z,5.88
2022-09-25T15:09:47.780Z,7.15
2022-09-25T15:14:41.671Z,7.75
2022-09-25T15:19:42.712Z,8.25
2022-09-25T15:24:36.790Z,7.25
2022-09-25T15:29:32.893Z,7.50
2022-09-25T15:34:31.657Z,5.90
2022-09-25T15:39:28.500Z,5.78
2022-09-25T15:44:26.873Z,5.57
2022-09-25T15:49:28.860Z,7.32
2022-09-25T15:54:34.707Z,6.13
2022-09-25T16:00:03.513Z,6.32
2022-09-25T16:04:59.733Z,11.45
2022-09-25T16:10:14.971Z,9.10
2022-09-25T16:15:32.151Z,8.32
2022-09-25T16:20:35.317Z,7.22
2022-09-25T16:25:35.732Z,8.55
2022-09-25T16:30:28.836Z,7.10
2022-09-25T16:36:09.347Z,6.78
2022-09-25T16:41:11.177Z,8.68
2022-09-25T16:46:19.039Z,9.00
2022-09-25T16:51:22.478Z,9.80
2022-09-25T16:56:26.293Z,14.35
2022-09-25T17:01:21.892Z,18.27
2022-09-25T17:06:16.122Z,16.73
2022-09-25T17:11:11.110Z,11.23
2022-09-25T17:16:06.046Z,11.80
2022-09-25T17:21:01.084Z,15.70
2022-09-25T17:26:18.469Z,13.77
2022-09-25T17:31:37.757Z,18.85
2022-09-25T17:36:32.088Z,35.45
2022-09-25T17:41:32.545Z,44.80
2022-09-25T17:46:34.209Z,55.33
2022-09-25T17:51:29.220Z,53.50
2022-09-25T17:56:23.572Z,40.70
2022-09-25T18:01:23.638Z,40.78
2022-09-25T18:06:17.179Z,43.40
2022-09-25T18:11:11.460Z,43.40
2022-09-25T18:16:06.816Z,34.58
2022-09-25T18:21:32.893Z,34.20
2022-09-25T18:26:31.167Z,37.80
2022-09-25T18:31:25.884Z,33.65
2022-09-25T18:36:21.349Z,29.50
2022-09-25T18:41:15.385Z,34.70
2022-09-25T18:46:10.454Z,38.78
2022-09-25T18:51:06.008Z,29.42
2022-09-25T18:56:01.166Z,34.15
2022-09-25T19:00:54.710Z,34.47
2022-09-25T19:06:01.403Z,26.65
2022-09-25T19:10:55.451Z,32.58
2022-09-25T19:15:50.330Z,22.23
2022-09-25T19:20:55.129Z,23.75
2022-09-25T19:25:55.930Z,20.10
2022-09-25T19:30:56.724Z,23.65
2022-09-25T19:35:50.073Z,22.65
2022-09-25T19:40:46.325Z,23.45
2022-09-25T19:45:40.371Z,23.25
2022-09-25T19:50:34.643Z,21.50
2022-09-25T19:55:32.124Z,23.83
2022-09-25T20:00:26.755Z,25.98
2022-09-25T20:05:26.782Z,26.42
2022-09-25T20:10:22.135Z,23.58
2022-09-25T20:15:16.348Z,25.15
2022-09-25T20:20:10.569Z,25.45
2022-09-25T20:25:05.523Z,19.65
2022-09-25T20:30:00.191Z,19.60
2022-09-25T20:34:54.036Z,24.90
2022-09-25T20:39:48.101Z,17.58
2022-09-25T20:44:42.413Z,17.45
2022-09-25T20:49:36.422Z,23.40
2022-09-25T20:54:30.687Z,19.15
2022-09-25T20:59:25.593Z,18.98
2022-09-25T21:04:20.092Z,21.05
2022-09-25T21:09:20.518Z,20.00
2022-09-25T21:14:21.655Z,20.80
2022-09-25T21:19:16.660Z,18.20
2022-09-25T21:24:14.657Z,17.10
2022-09-25T21:29:10.741Z,16.60
2022-09-25T21:34:06.237Z,16.30
2022-09-25T21:39:00.792Z,17.80
2022-09-25T21:44:19.761Z,18.55
2022-09-25T21:49:18.389Z,15.48
2022-09-25T21:54:16.664Z,18.67
2022-09-25T21:59:11.288Z,14.63
2022-09-25T22:04:06.201Z,15.13
2022-09-25T22:09:01.467Z,15.43
2022-09-25T22:13:58.404Z,12.70
2022-09-25T22:18:57.920Z,14.23
2022-09-25T22:23:52.242Z,15.38
2022-09-25T22:28:47.131Z,12.35
2022-09-25T22:33:41.339Z,12.35
2022-09-25T22:38:36.552Z,13.48
2022-09-25T22:43:33.961Z,13.15
2022-09-25T22:48:29.082Z,11.18
2022-09-25T22:53:24.283Z,13.88
2022-09-25T22:58:19.802Z,11.90
2022-09-25T23:03:14.091Z,11.15
2022-09-25T23:08:08.758Z,12.45
2022-09-25T23:13:02.445Z,11.82
2022-09-25T23:17:56.334Z,10.15
2022-09-25T23:22:50.286Z,12.10
2022-09-25T23:27:44.662Z,12.45
2022-09-25T23:32:42.853Z,10.35
2022-09-25T23:37:36.791Z,10.35
2022-09-25T23:42:31.594Z,10.65
2022-09-25T23:47:25.463Z,10.85
2022-09-25T23:52:18.556Z,10.00
2022-09-25T23:57:12.235Z,9.75
